createdAt,value
2018-04-18T00:02:07.398Z,6.10
2018-04-18T00:04:34.952Z,6.20
2018-04-18T00:07:02.431Z,6.20
2018-04-18T00:09:29.965Z,6.30
2018-04-18T00:11:57.506Z,6.20
2018-04-18T00:14:25.017Z,6.20
2018-04-18T00:16:52.543Z,6.20
2018-04-18T00:19:20.090Z,6.10
2018-04-18T00:21:47.619Z,6.10
2018-04-18T00:24:15.150Z,6.10
2018-04-18T00:26:42.703Z,6.10
2018-04-18T00:29:10.215Z,6.10
2018-04-18T00:31:37.706Z,6.00
2018-04-18T00:34:05.219Z,6.00
2018-04-18T00:36:32.714Z,6.00
2018-04-18T00:39:00.275Z,6.00
2018-04-18T00:41:28.553Z,6.00
2018-04-18T00:43:56.070Z,6.00
2018-04-18T00:46:23.615Z,6.00
2018-04-18T00:48:51.935Z,5.90
2018-04-18T00:51:20.522Z,5.90
2018-04-18T00:53:48.044Z,5.90
2018-04-18T00:56:15.551Z,5.80
2018-04-18T00:58:43.125Z,5.80
2018-04-18T01:01:10.614Z,5.70
2018-04-18T01:03:38.145Z,5.70
2018-04-18T01:06:06.435Z,5.70
2018-04-18T01:08:34.690Z,5.70
2018-04-18T01:11:02.174Z,5.60
2018-04-18T01:13:29.648Z,5.60
2018-04-18T01:15:57.188Z,5.60
2018-04-18T01:18:24.696Z,5.60
2018-04-18T01:20:52.194Z,5.70
2018-04-18T01:23:20.460Z,5.70
2018-04-18T01:25:48.695Z,5.60
2018-04-18T01:28:16.226Z,5.50
2018-04-18T01:30:43.787Z,5.50
2018-04-18T01:33:11.315Z,5.60
2018-04-18T01:35:39.574Z,5.40
2018-04-18T01:38:07.073Z,5.40
2018-04-18T01:40:34.535Z,5.30
2018-04-18T01:43:02.071Z,5.20
2018-04-18T01:45:30.318Z,5.10
2018-04-18T01:47:57.847Z,5.20
2018-04-18T01:50:25.392Z,5.10
2018-04-18T01:52:52.885Z,5.10
2018-04-18T01:55:20.426Z,5.10
2018-04-18T01:57:47.930Z,5.20
2018-04-18T02:00:16.218Z,5.20
2018-04-18T02:02:44.512Z,5.20
2018-04-18T02:05:11.997Z,5.20
2018-04-18T02:07:39.516Z,5.30
2018-04-18T02:10:07.782Z,5.40
2018-04-18T02:12:35.350Z,5.40
2018-04-18T02:15:02.860Z,5.40
2018-04-18T02:17:30.385Z,5.40
2018-04-18T02:19:57.900Z,5.40
2018-04-18T02:22:26.154Z,5.40
2018-04-18T02:24:53.703Z,5.40
2018-04-18T02:27:21.203Z,5.40
2018-04-18T02:29:49.460Z,5.20
2018-04-18T02:32:16.923Z,5.20
2018-04-18T02:34:45.167Z,5.20
2018-04-18T02:37:12.716Z,5.20
2018-04-18T02:39:41.004Z,5.20
2018-04-18T02:42:08.547Z,5.20
2018-04-18T02:44:36.066Z,5.20
2018-04-18T02:47:03.589Z,5.20
2018-04-18T02:49:31.101Z,5.20
2018-04-18T02:51:58.927Z,5.20
2018-04-18T02:54:26.522Z,5.20
2018-04-18T02:56:54.029Z,5.20
2018-04-18T02:59:21.543Z,5.20
2018-04-18T03:01:49.047Z,5.10
2018-04-18T03:04:16.514Z,5.10
2018-04-18T03:06:44.782Z,5.00
2018-04-18T03:09:12.278Z,5.00
2018-04-18T03:11:39.764Z,4.90
2018-04-18T03:14:07.279Z,4.80
2018-04-18T03:16:35.575Z,4.80
2018-04-18T03:19:03.072Z,4.80
2018-04-18T03:21:32.195Z,4.70
2018-04-18T03:24:00.437Z,4.70
2018-04-18T03:26:28.685Z,4.80
2018-04-18T03:28:56.248Z,4.70
2018-04-18T03:31:23.776Z,4.80
2018-04-18T03:33:52.061Z,4.80
2018-04-18T03:36:19.538Z,4.80
2018-04-18T03:38:47.044Z,4.80
2018-04-18T03:41:14.567Z,4.80
2018-04-18T03:43:42.089Z,4.90
2018-04-18T03:46:10.375Z,4.80
2018-04-18T03:48:37.899Z,4.70
2018-04-18T03:51:05.393Z,4.80
2018-04-18T03:53:32.857Z,4.70
2018-04-18T03:56:00.349Z,4.70
2018-04-18T03:58:27.883Z,4.70
2018-04-18T04:00:55.409Z,4.60
2018-04-18T04:03:23.688Z,4.60
2018-04-18T04:05:51.974Z,4.50
2018-04-18T04:08:19.454Z,4.50
2018-04-18T04:10:46.941Z,4.40
2018-04-18T04:13:14.440Z,4.50
2018-04-18T04:15:41.913Z,4.50
2018-04-18T04:18:21.201Z,4.60
2018-04-18T04:21:00.534Z,4.50
2018-04-18T04:23:40.194Z,4.40
2018-04-18T04:26:08.440Z,4.20
2018-04-18T04:28:35.973Z,4.20
2018-04-18T04:31:03.507Z,4.20
2018-04-18T04:33:31.015Z,4.30
2018-04-18T04:35:58.547Z,4.30
2018-04-18T04:38:26.029Z,4.30
2018-04-18T04:40:53.623Z,4.40
2018-04-18T04:43:21.853Z,4.50
2018-04-18T04:45:49.421Z,4.50
2018-04-18T04:48:16.905Z,4.60
2018-04-18T04:50:45.196Z,4.80
2018-04-18T04:53:12.715Z,4.70
2018-04-18T04:55:40.214Z,4.80
2018-04-18T04:58:07.788Z,5.00
2018-04-18T05:00:35.308Z,5.10
2018-04-18T05:03:03.716Z,5.40
2018-04-18T05:05:31.310Z,5.40
2018-04-18T05:07:58.900Z,5.50
2018-04-18T05:10:26.461Z,5.60
2018-04-18T05:12:53.987Z,5.70
2018-04-18T05:15:21.496Z,5.70
2018-04-18T05:17:49.102Z,5.90
2018-04-18T05:20:16.655Z,5.90
2018-04-18T05:22:44.511Z,6.10
2018-04-18T05:25:12.459Z,6.20
2018-04-18T05:27:40.008Z,6.60
2018-04-18T05:30:08.353Z,8.90
2018-04-18T05:32:35.883Z,8.90
2018-04-18T05:35:04.186Z,11.50
2018-04-18T05:37:31.722Z,11.50
2018-04-18T05:40:00.041Z,13.20
2018-04-18T05:42:27.517Z,13.10
2018-04-18T05:44:55.788Z,14.60
2018-04-18T05:47:23.329Z,14.60
2018-04-18T05:49:50.821Z,15.40
2018-04-18T05:52:18.348Z,16.20
2018-04-18T05:54:45.879Z,16.70
2018-04-18T05:57:13.424Z,17.30
2018-04-18T05:59:41.773Z,17.80
2018-04-18T06:02:09.257Z,17.80
2018-04-18T06:04:37.592Z,18.80
2018-04-18T06:07:05.097Z,18.80
2018-04-18T06:09:32.589Z,19.20
2018-04-18T06:12:00.124Z,19.40
2018-04-18T06:14:27.671Z,19.30
2018-04-18T06:16:55.944Z,18.70
2018-04-18T06:19:24.225Z,19.00
2018-04-18T06:21:51.733Z,18.90
2018-04-18T06:24:19.244Z,19.10
2018-04-18T06:26:47.514Z,20.10
2018-04-18T06:29:15.807Z,21.10
2018-04-18T06:31:43.323Z,21.10
2018-04-18T06:34:10.863Z,21.40
2018-04-18T06:36:38.366Z,22.10
2018-04-18T06:39:06.687Z,23.40
2018-04-18T06:41:34.222Z,23.40
2018-04-18T06:44:01.744Z,23.00
2018-04-18T06:46:30.024Z,23.90
2018-04-18T06:48:58.273Z,24.70
2018-04-18T06:51:25.775Z,24.70
2018-04-18T06:53:53.317Z,25.10
2018-04-18T06:56:21.607Z,25.00
2018-04-18T06:58:49.181Z,25.00
2018-04-18T07:01:16.712Z,24.50
2018-04-18T07:03:44.998Z,24.90
2018-04-18T07:06:13.306Z,24.40
2018-04-18T07:08:40.880Z,24.40
2018-04-18T07:11:08.436Z,24.00
2018-04-18T07:13:35.963Z,24.40
2018-04-18T07:16:03.485Z,25.30
2018-04-18T07:18:30.986Z,25.80
2018-04-18T07:20:58.479Z,26.40
2018-04-18T07:23:25.982Z,26.20
2018-04-18T07:25:53.543Z,26.70
2018-04-18T07:28:21.811Z,26.70
2018-04-18T07:30:50.055Z,27.40
2018-04-18T07:33:17.588Z,27.40
2018-04-18T07:35:45.104Z,26.70
2018-04-18T07:38:13.395Z,27.90
2018-04-18T07:40:40.924Z,27.80
2018-04-18T07:43:08.478Z,27.50
2018-04-18T07:45:35.991Z,27.20
2018-04-18T07:48:03.525Z,28.00
2018-04-18T07:50:31.041Z,28.60
2018-04-18T07:52:58.606Z,28.40
2018-04-18T07:55:26.107Z,29.30
2018-04-18T07:57:53.647Z,29.20
2018-04-18T08:00:21.967Z,29.40
2018-04-18T08:02:50.230Z,28.90
2018-04-18T08:05:17.792Z,28.80
2018-04-18T08:07:45.353Z,29.20
2018-04-18T08:10:12.922Z,29.20
2018-04-18T08:12:40.430Z,29.90
2018-04-18T08:15:07.929Z,29.60
2018-04-18T08:17:35.449Z,29.80
2018-04-18T08:20:03.731Z,30.20
2018-04-18T08:22:31.967Z,30.60
2018-04-18T08:24:59.512Z,30.50
2018-04-18T08:27:27.025Z,30.10
2018-04-18T08:29:54.563Z,30.80
2018-04-18T08:32:22.829Z,31.50
2018-04-18T08:34:50.340Z,31.40
2018-04-18T08:37:17.871Z,30.80
2018-04-18T08:39:46.168Z,31.80
2018-04-18T08:42:13.638Z,31.70
2018-04-18T08:44:41.124Z,30.80
2018-04-18T08:47:08.641Z,29.90
2018-04-18T08:49:36.204Z,30.10
2018-04-18T08:52:03.724Z,28.40
2018-04-18T08:54:31.960Z,24.90
2018-04-18T08:56:59.470Z,24.80
2018-04-18T08:59:26.991Z,23.40
2018-04-18T09:01:54.532Z,22.20
2018-04-18T09:04:22.071Z,21.60
2018-04-18T09:06:49.564Z,21.40
2018-04-18T09:09:17.043Z,21.30
2018-04-18T09:11:45.316Z,21.10
2018-04-18T09:14:13.589Z,21.00
2018-04-18T09:16:41.864Z,20.90
2018-04-18T09:19:10.160Z,20.70
2018-04-18T09:21:38.408Z,20.60
2018-04-18T09:24:05.880Z,20.60
2018-04-18T09:26:34.148Z,20.20
2018-04-18T09:29:01.644Z,20.20
2018-04-18T09:31:29.110Z,20.00
2018-04-18T09:33:56.611Z,19.90
2018-04-18T09:36:24.140Z,19.60
2018-04-18T09:38:51.636Z,19.50
2018-04-18T09:41:19.177Z,19.70
2018-04-18T09:43:46.657Z,19.70
2018-04-18T09:46:14.924Z,19.40
2018-04-18T09:48:43.232Z,19.30
2018-04-18T09:51:10.742Z,19.30
2018-04-18T09:53:38.268Z,19.40
2018-04-18T09:56:05.820Z,19.50
2018-04-18T09:58:33.366Z,19.50
2018-04-18T10:01:00.884Z,19.50
2018-04-18T10:03:28.373Z,19.50
2018-04-18T10:05:55.875Z,19.60
2018-04-18T10:08:23.399Z,19.50
2018-04-18T10:10:50.866Z,19.50
2018-04-18T10:13:18.357Z,19.30
2018-04-18T10:15:45.866Z,19.40
2018-04-18T10:18:13.373Z,19.60
2018-04-18T10:20:40.897Z,19.70
2018-04-18T10:23:08.386Z,19.80
2018-04-18T10:25:35.896Z,19.70
2018-04-18T10:28:03.373Z,19.80
2018-04-18T10:30:30.900Z,19.80
2018-04-18T10:32:59.199Z,19.70
2018-04-18T10:35:26.697Z,19.60
2018-04-18T10:37:54.174Z,19.60
2018-04-18T10:40:21.638Z,19.50
2018-04-18T10:42:49.936Z,19.30
2018-04-18T10:45:17.412Z,19.40
2018-04-18T10:47:44.930Z,19.40
2018-04-18T10:50:13.171Z,19.50
2018-04-18T10:52:40.654Z,19.50
2018-04-18T10:55:08.768Z,19.50
2018-04-18T10:57:36.242Z,19.70
2018-04-18T11:00:03.770Z,19.60
2018-04-18T11:02:31.288Z,19.40
2018-04-18T11:04:58.746Z,19.40
2018-04-18T11:07:26.260Z,19.40
2018-04-18T11:09:53.748Z,19.60
2018-04-18T11:12:21.265Z,19.70
2018-04-18T11:14:48.766Z,19.70
2018-04-18T11:17:16.314Z,19.70
2018-04-18T11:19:43.782Z,19.70
2018-04-18T11:22:11.324Z,19.70
2018-04-18T11:24:38.786Z,19.70
2018-04-18T11:27:06.299Z,19.60
2018-04-18T11:29:34.600Z,19.70
2018-04-18T11:32:02.072Z,19.70
2018-04-18T11:34:29.562Z,19.70
2018-04-18T11:36:57.071Z,19.70
2018-04-18T11:39:24.575Z,19.90
2018-04-18T11:41:52.087Z,19.80
2018-04-18T11:44:19.548Z,19.70
2018-04-18T11:46:47.045Z,19.80
2018-04-18T11:49:14.582Z,19.90
2018-04-18T11:51:42.083Z,19.80
2018-04-18T11:54:10.375Z,19.70
2018-04-18T11:56:37.900Z,19.70
2018-04-18T11:59:05.367Z,19.60
2018-04-18T12:01:33.624Z,19.30
2018-04-18T12:04:01.192Z,19.30
2018-04-18T12:06:28.650Z,19.30
2018-04-18T12:08:56.117Z,19.50
2018-04-18T12:11:24.424Z,19.60
2018-04-18T12:13:51.952Z,19.60
2018-04-18T12:16:20.214Z,19.80
2018-04-18T12:18:47.742Z,19.80
2018-04-18T12:21:15.250Z,19.90
2018-04-18T12:23:43.535Z,19.80
2018-04-18T12:26:11.052Z,19.80
2018-04-18T12:28:38.563Z,19.70
2018-04-18T12:31:06.050Z,19.70
2018-04-18T12:33:33.618Z,19.80
2018-04-18T12:36:01.116Z,19.80
2018-04-18T12:38:29.438Z,19.80
2018-04-18T12:40:56.972Z,19.80
2018-04-18T12:43:24.610Z,19.80
2018-04-18T12:45:52.867Z,19.80
2018-04-18T12:48:20.374Z,19.80
2018-04-18T12:50:47.880Z,19.80
2018-04-18T12:53:15.411Z,19.80
2018-04-18T12:55:42.919Z,19.80
2018-04-18T12:58:10.455Z,19.70
2018-04-18T13:00:38.123Z,19.60
2018-04-18T13:03:06.542Z,19.80
2018-04-18T13:05:34.063Z,19.80
2018-04-18T13:08:02.362Z,19.60
2018-04-18T13:10:29.891Z,19.60
2018-04-18T13:12:57.442Z,19.70
2018-04-18T13:15:24.997Z,20.00
2018-04-18T13:17:52.601Z,20.00
2018-04-18T13:20:20.110Z,20.00
2018-04-18T13:22:47.582Z,20.00
2018-04-18T13:25:15.161Z,20.00
2018-04-18T13:27:42.682Z,20.00
2018-04-18T13:30:10.231Z,19.90
2018-04-18T13:32:38.537Z,19.80
2018-04-18T13:35:06.069Z,19.80
2018-04-18T13:37:33.539Z,19.80
2018-04-18T13:40:01.092Z,19.90
2018-04-18T13:42:28.672Z,20.00
2018-04-18T13:44:56.175Z,20.00
2018-04-18T13:47:23.697Z,20.10
2018-04-18T13:49:52.030Z,20.10
2018-04-18T13:52:19.508Z,20.10
2018-04-18T13:54:47.027Z,20.10
2018-04-18T13:57:14.492Z,20.10
2018-04-18T13:59:41.976Z,20.10
2018-04-18T14:02:09.499Z,20.10
2018-04-18T14:04:36.958Z,20.20
2018-04-18T14:07:04.473Z,20.30
2018-04-18T14:09:32.730Z,20.20
2018-04-18T14:12:00.264Z,20.20
2018-04-18T14:14:27.796Z,20.10
2018-04-18T14:16:55.259Z,20.20
2018-04-18T14:19:22.728Z,20.30
2018-04-18T14:21:50.243Z,20.30
2018-04-18T14:24:18.543Z,20.30
2018-04-18T14:26:46.036Z,20.20
2018-04-18T14:29:13.547Z,20.30
2018-04-18T14:31:41.089Z,20.40
2018-04-18T14:34:09.366Z,20.30
2018-04-18T14:36:36.904Z,20.30
2018-04-18T14:39:04.420Z,20.30
2018-04-18T14:41:31.938Z,20.30
2018-04-18T14:44:00.226Z,20.30
2018-04-18T14:46:28.474Z,20.30
2018-04-18T14:48:56.000Z,20.30
2018-04-18T14:51:23.569Z,20.30
2018-04-18T14:53:51.063Z,20.30
2018-04-18T14:56:19.302Z,20.40
2018-04-18T14:58:46.774Z,20.30
2018-04-18T15:01:14.298Z,20.30
2018-04-18T15:03:41.815Z,20.30
2018-04-18T15:06:10.078Z,20.10
2018-04-18T15:08:37.638Z,20.10
2018-04-18T15:11:05.130Z,20.20
2018-04-18T15:13:32.603Z,20.20
2018-04-18T15:16:00.119Z,20.20
2018-04-18T15:18:28.376Z,20.30
2018-04-18T15:20:55.911Z,20.30
2018-04-18T15:23:23.379Z,20.40
2018-04-18T15:25:50.857Z,20.30
2018-04-18T15:28:19.180Z,20.40
2018-04-18T15:30:46.632Z,20.40
2018-04-18T15:33:14.161Z,20.40
2018-04-18T15:35:42.449Z,20.40
2018-04-18T15:38:10.683Z,20.30
2018-04-18T15:40:38.225Z,20.30
2018-04-18T15:43:05.791Z,20.20
2018-04-18T15:45:34.098Z,20.20
2018-04-18T15:48:01.598Z,20.20
2018-04-18T15:50:29.132Z,20.10
2018-04-18T15:52:56.612Z,20.10
2018-04-18T15:55:24.080Z,20.10
2018-04-18T15:57:51.569Z,20.10
2018-04-18T16:00:19.069Z,20.10
2018-04-18T16:02:46.562Z,20.10
2018-04-18T16:05:14.079Z,20.10
2018-04-18T16:07:42.368Z,20.10
2018-04-18T16:10:09.871Z,20.10
2018-04-18T16:12:37.358Z,20.10
2018-04-18T16:15:05.655Z,20.00
2018-04-18T16:17:33.121Z,20.00
2018-04-18T16:20:00.648Z,20.10
2018-04-18T16:22:28.930Z,20.00
2018-04-18T16:24:56.446Z,19.90
2018-04-18T16:27:23.930Z,20.00
2018-04-18T16:29:51.403Z,19.90
2018-04-18T16:32:19.685Z,19.80
2018-04-18T16:34:47.980Z,19.80
2018-04-18T16:37:15.463Z,19.80
2018-04-18T16:39:43.049Z,19.70
2018-04-18T16:42:10.514Z,19.70
2018-04-18T16:44:38.764Z,19.50
2018-04-18T16:47:06.327Z,19.50
2018-04-18T16:49:33.883Z,19.50
2018-04-18T16:52:01.391Z,19.40
2018-04-18T16:54:28.913Z,19.30
2018-04-18T16:56:56.405Z,19.30
2018-04-18T16:59:23.924Z,19.20
2018-04-18T17:01:51.427Z,19.10
2018-04-18T17:04:18.947Z,19.00
2018-04-18T17:06:46.503Z,18.90
2018-04-18T17:09:14.029Z,18.90
2018-04-18T17:11:42.224Z,18.80
2018-04-18T17:14:09.715Z,18.80
2018-04-18T17:16:37.979Z,18.70
2018-04-18T17:19:05.481Z,18.70
2018-04-18T17:21:33.006Z,18.70
2018-04-18T17:24:00.507Z,18.60
2018-04-18T17:26:27.993Z,18.50
2018-04-18T17:28:55.507Z,18.50
2018-04-18T17:31:23.003Z,18.50
2018-04-18T17:33:50.597Z,18.40
2018-04-18T17:36:18.026Z,18.40
2018-04-18T17:38:45.566Z,18.20
2018-04-18T17:41:13.073Z,18.10
2018-04-18T17:43:41.368Z,17.80
2018-04-18T17:46:08.870Z,17.80
2018-04-18T17:48:36.436Z,17.60
2018-04-18T17:51:03.914Z,17.60
2018-04-18T17:53:31.523Z,17.60
2018-04-18T17:55:59.050Z,17.60
2018-04-18T17:58:26.588Z,17.50
2018-04-18T18:00:54.887Z,17.20
2018-04-18T18:03:22.372Z,17.30
2018-04-18T18:05:49.911Z,17.20
2018-04-18T18:08:17.422Z,17.10
2018-04-18T18:10:44.951Z,17.00
2018-04-18T18:13:12.441Z,16.90
2018-04-18T18:15:39.987Z,16.80
2018-04-18T18:18:07.495Z,16.70
2018-04-18T18:20:34.985Z,16.50
2018-04-18T18:23:02.485Z,16.50
2018-04-18T18:25:30.786Z,16.20
2018-04-18T18:27:59.041Z,16.00
2018-04-18T18:30:27.317Z,15.90
2018-04-18T18:32:55.587Z,15.50
2018-04-18T18:35:23.870Z,15.30
2018-04-18T18:37:52.139Z,15.00
2018-04-18T18:40:20.419Z,14.70
2018-04-18T18:42:47.961Z,14.70
2018-04-18T18:45:15.438Z,14.30
2018-04-18T18:47:43.717Z,13.70
2018-04-18T18:50:12.011Z,13.60
2018-04-18T18:52:39.541Z,13.50
2018-04-18T18:55:07.859Z,13.30
2018-04-18T18:57:35.335Z,13.30
2018-04-18T19:00:02.909Z,13.20
2018-04-18T19:02:30.352Z,13.00
2018-04-18T19:04:58.642Z,12.60
2018-04-18T19:07:26.179Z,12.60
2018-04-18T19:09:53.690Z,12.50
2018-04-18T19:12:21.980Z,12.30
2018-04-18T19:14:49.543Z,12.20
2018-04-18T19:17:17.035Z,12.20
2018-04-18T19:19:45.322Z,12.20
2018-04-18T19:22:12.832Z,12.10
2018-04-18T19:24:40.351Z,12.00
2018-04-18T19:27:07.876Z,11.80
2018-04-18T19:29:35.346Z,11.60
2018-04-18T19:32:02.829Z,11.50
2018-04-18T19:34:30.327Z,11.60
2018-04-18T19:36:57.876Z,11.60
2018-04-18T19:39:25.429Z,11.50
2018-04-18T19:41:52.979Z,11.40
2018-04-18T19:44:20.489Z,11.40
2018-04-18T19:46:48.002Z,11.20
2018-04-18T19:49:16.285Z,11.20
2018-04-18T19:51:43.779Z,11.20
2018-04-18T19:54:11.317Z,11.10
2018-04-18T19:56:38.811Z,11.10
2018-04-18T19:59:06.341Z,11.20
2018-04-18T20:01:33.856Z,11.20
2018-04-18T20:04:02.177Z,11.20
2018-04-18T20:06:29.735Z,11.10
2018-04-18T20:08:57.260Z,11.10
2018-04-18T20:11:25.543Z,11.00
2018-04-18T20:13:53.830Z,11.00
2018-04-18T20:16:21.347Z,11.00
2018-04-18T20:18:48.827Z,10.90
2018-04-18T20:21:17.117Z,10.90
2018-04-18T20:23:44.590Z,10.90
2018-04-18T20:26:12.114Z,10.90
2018-04-18T20:28:40.354Z,10.90
2018-04-18T20:31:07.863Z,10.80
2018-04-18T20:33:35.400Z,10.80
2018-04-18T20:36:03.670Z,10.40
2018-04-18T20:38:31.150Z,10.50
2018-04-18T20:40:58.646Z,10.40
2018-04-18T20:43:26.133Z,10.50
2018-04-18T20:45:53.658Z,10.60
2018-04-18T20:48:21.140Z,10.60
2018-04-18T20:50:48.638Z,10.40
2018-04-18T20:53:16.900Z,10.20
2018-04-18T20:55:45.196Z,10.10
2018-04-18T20:58:12.710Z,10.10
2018-04-18T21:00:40.255Z,9.90
2018-04-18T21:03:07.777Z,9.90
2018-04-18T21:05:35.286Z,9.80
2018-04-18T21:08:02.817Z,9.80
2018-04-18T21:10:30.339Z,9.70
2018-04-18T21:12:57.875Z,9.70
2018-04-18T21:15:25.443Z,9.60
2018-04-18T21:17:52.927Z,9.60
2018-04-18T21:20:20.413Z,9.60
2018-04-18T21:22:47.904Z,9.50
2018-04-18T21:25:16.216Z,9.50
2018-04-18T21:27:43.803Z,9.40
2018-04-18T21:30:11.339Z,9.40
2018-04-18T21:32:38.862Z,9.30
2018-04-18T21:35:07.136Z,9.20
2018-04-18T21:37:35.409Z,9.20
2018-04-18T21:40:03.666Z,9.20
2018-04-18T21:42:31.206Z,9.10
2018-04-18T21:44:58.687Z,9.10
2018-04-18T21:47:26.183Z,9.00
2018-04-18T21:49:53.664Z,9.00
2018-04-18T21:52:21.144Z,9.00
2018-04-18T21:54:48.688Z,8.90
2018-04-18T21:57:16.195Z,8.90
2018-04-18T21:59:44.469Z,8.80
2018-04-18T22:02:12.726Z,8.70
2018-04-18T22:04:41.764Z,8.70
2018-04-18T22:09:43.371Z,8.70
2018-04-18T22:12:15.790Z,8.70
2018-04-18T22:14:44.068Z,8.50
2018-04-18T22:17:11.597Z,8.50
2018-04-18T22:19:39.046Z,8.50
2018-04-18T22:22:06.615Z,8.50
2018-04-18T22:24:34.125Z,8.40
2018-04-18T22:27:01.821Z,8.20
2018-04-18T22:29:29.366Z,8.20
2018-04-18T22:31:56.868Z,8.10
2018-04-18T22:34:25.178Z,8.10
2018-04-18T22:36:52.741Z,8.10
2018-04-18T22:39:21.127Z,8.10
2018-04-18T22:41:48.699Z,8.10
2018-04-18T22:44:16.630Z,8.10
2018-04-18T22:46:44.145Z,8.00
2018-04-18T22:49:11.687Z,7.90
2018-04-18T22:51:39.196Z,7.90
2018-04-18T22:54:07.534Z,7.80
2018-04-18T22:56:35.068Z,7.80
2018-04-18T22:59:02.573Z,7.80
2018-04-18T23:01:30.882Z,7.60
2018-04-18T23:03:58.431Z,7.50
2018-04-18T23:06:25.941Z,7.50
2018-04-18T23:08:53.463Z,7.40
2018-04-18T23:11:20.945Z,7.40
2018-04-18T23:13:48.582Z,7.40
2018-04-18T23:16:16.116Z,7.40
2018-04-18T23:18:43.687Z,7.40
2018-04-18T23:21:12.003Z,7.50
2018-04-18T23:23:39.648Z,7.50
2018-04-18T23:26:07.147Z,7.50
2018-04-18T23:28:34.746Z,7.50
2018-04-18T23:31:02.227Z,7.40
2018-04-18T23:33:29.725Z,7.50
2018-04-18T23:35:58.016Z,7.50
2018-04-18T23:38:26.321Z,7.40
2018-04-18T23:40:53.811Z,7.30
2018-04-18T23:43:21.474Z,7.20
2018-04-18T23:45:48.949Z,7.10
2018-04-18T23:48:17.198Z,6.90
2018-04-18T23:50:44.679Z,6.90
2018-04-18T23:53:12.228Z,6.90
2018-04-18T23:55:39.717Z,6.90
2018-04-18T23:58:08.023Z,6.90
